createdAt,value
2022-08-28T00:00:45.008Z,1.00
2022-08-28T00:03:14.728Z,1.08
2022-08-28T00:05:44.685Z,2.50
2022-08-28T00:10:41.260Z,0.90
2022-08-28T00:13:15.445Z,1.73
2022-08-28T00:15:42.750Z,1.40
2022-08-28T00:20:38.336Z,1.40
2022-08-28T00:23:06.393Z,1.42
2022-08-28T00:25:37.279Z,1.08
2022-08-28T00:28:10.493Z,1.73
2022-08-28T00:30:49.419Z,1.17
2022-08-28T00:33:27.364Z,1.70
2022-08-28T00:38:23.496Z,1.67
2022-08-28T00:40:55.995Z,1.27
2022-08-28T00:43:36.862Z,1.40
2022-08-28T00:46:09.267Z,1.85
2022-08-28T00:48:36.762Z,1.58
2022-08-28T00:51:23.425Z,1.48
2022-08-28T00:53:51.531Z,1.95
2022-08-28T00:56:20.213Z,1.75
2022-08-28T00:58:49.568Z,1.40
2022-08-28T01:01:17.117Z,1.63
2022-08-28T01:03:45.112Z,1.80
2022-08-28T01:06:15.352Z,1.45
2022-08-28T01:08:49.833Z,1.27
2022-08-28T01:11:19.251Z,1.45
2022-08-28T01:13:48.642Z,1.60
2022-08-28T01:16:17.890Z,1.45
2022-08-28T01:18:46.675Z,1.60
2022-08-28T01:21:23.746Z,1.50
2022-08-28T01:26:23.371Z,1.80
2022-08-28T01:28:52.022Z,1.77
2022-08-28T01:31:21.644Z,1.42
2022-08-28T01:33:48.780Z,1.40
2022-08-28T01:36:17.713Z,2.25
2022-08-28T01:38:52.903Z,1.48
2022-08-28T01:41:20.788Z,1.80
2022-08-28T01:43:48.305Z,2.75
2022-08-28T01:46:15.471Z,2.13
2022-08-28T01:48:43.698Z,1.67
2022-08-28T01:51:12.056Z,1.92
2022-08-28T01:53:39.505Z,2.22
2022-08-28T01:56:10.521Z,2.35
2022-08-28T01:58:38.665Z,1.25
2022-08-28T02:01:26.061Z,1.70
2022-08-28T02:03:53.238Z,1.50
2022-08-28T02:06:20.370Z,1.85
2022-08-28T02:08:49.815Z,2.33
2022-08-28T02:11:17.255Z,2.33
2022-08-28T02:13:44.270Z,1.60
2022-08-28T02:16:11.639Z,2.03
2022-08-28T02:21:07.965Z,1.55
2022-08-28T02:23:36.170Z,1.92
2022-08-28T02:26:03.314Z,2.33
2022-08-28T02:30:58.051Z,2.00
2022-08-28T02:33:25.105Z,1.70
2022-08-28T02:35:52.088Z,1.98
2022-08-28T02:38:19.173Z,1.83
2022-08-28T02:40:46.192Z,1.55
2022-08-28T02:43:13.245Z,2.20
2022-08-28T02:45:40.404Z,2.03
2022-08-28T02:48:15.586Z,1.98
2022-08-28T02:50:46.499Z,1.85
2022-08-28T02:53:14.397Z,2.35
2022-08-28T02:55:41.423Z,2.15
2022-08-28T02:58:09.636Z,1.65
2022-08-28T03:00:36.814Z,2.40
2022-08-28T03:03:03.839Z,1.92
2022-08-28T03:05:30.867Z,2.45
2022-08-28T03:07:57.885Z,2.03
2022-08-28T03:10:25.453Z,2.33
2022-08-28T03:12:53.027Z,1.90
2022-08-28T03:15:20.524Z,2.35
2022-08-28T03:17:48.071Z,1.70
2022-08-28T03:20:16.145Z,2.15
2022-08-28T03:23:02.110Z,1.92
2022-08-28T03:25:29.491Z,2.40
2022-08-28T03:30:23.900Z,2.83
2022-08-28T03:32:50.991Z,2.72
2022-08-28T03:35:18.445Z,1.98
2022-08-28T03:37:45.407Z,2.15
2022-08-28T03:40:13.721Z,1.75
2022-08-28T03:42:41.312Z,2.05
2022-08-28T03:45:10.274Z,2.28
2022-08-28T03:47:38.852Z,2.22
2022-08-28T03:50:07.733Z,1.95
2022-08-28T03:52:37.348Z,2.47
2022-08-28T03:57:32.745Z,1.90
2022-08-28T04:00:00.007Z,2.63
2022-08-28T04:02:27.042Z,2.03
2022-08-28T04:04:54.145Z,2.35
2022-08-28T04:07:22.376Z,1.92
2022-08-28T04:09:49.468Z,2.13
2022-08-28T04:12:16.486Z,2.25
2022-08-28T04:14:43.489Z,1.77
2022-08-28T04:17:11.193Z,1.70
2022-08-28T04:19:38.325Z,3.03
2022-08-28T04:22:05.488Z,2.30
2022-08-28T04:24:32.481Z,2.78
2022-08-28T04:26:59.459Z,2.22
2022-08-28T04:29:26.473Z,1.77
2022-08-28T04:31:53.570Z,2.38
2022-08-28T04:34:20.628Z,2.88
2022-08-28T04:36:51.256Z,2.30
2022-08-28T04:39:18.265Z,2.47
2022-08-28T04:41:50.064Z,1.95
2022-08-28T04:44:17.037Z,2.20
2022-08-28T04:46:48.336Z,1.98
2022-08-28T04:49:16.186Z,2.25
2022-08-28T04:51:43.131Z,2.10
2022-08-28T04:54:14.243Z,1.85
2022-08-28T04:59:11.060Z,1.85
2022-08-28T05:01:38.269Z,2.05
2022-08-28T05:04:05.264Z,2.05
2022-08-28T05:06:33.464Z,2.00
2022-08-28T05:09:03.388Z,1.95
2022-08-28T05:11:34.174Z,2.00
2022-08-28T05:14:07.139Z,1.92
2022-08-28T05:16:42.545Z,2.05
2022-08-28T05:19:10.329Z,1.67
2022-08-28T05:21:38.721Z,2.13
2022-08-28T05:24:06.659Z,2.38
2022-08-28T05:26:34.660Z,1.77
2022-08-28T05:29:01.941Z,1.63
2022-08-28T05:31:31.103Z,2.22
2022-08-28T05:33:59.720Z,1.30
2022-08-28T05:36:32.823Z,1.77
2022-08-28T05:39:01.449Z,1.52
2022-08-28T05:41:31.038Z,1.40
2022-08-28T05:43:59.692Z,2.25
2022-08-28T05:46:28.255Z,1.80
2022-08-28T05:48:56.021Z,2.22
2022-08-28T05:51:26.621Z,1.75
2022-08-28T05:53:55.867Z,2.13
2022-08-28T05:56:25.975Z,1.88
2022-08-28T05:58:52.937Z,2.05
2022-08-28T06:01:23.359Z,1.67
2022-08-28T06:03:55.168Z,2.05
2022-08-28T06:06:24.680Z,1.70
2022-08-28T06:09:03.230Z,1.67
2022-08-28T06:11:31.292Z,1.90
2022-08-28T06:14:03.780Z,2.47
2022-08-28T06:16:34.214Z,1.85
2022-08-28T06:19:01.494Z,1.92
2022-08-28T06:21:29.256Z,2.33
2022-08-28T06:23:56.680Z,1.70
2022-08-28T06:28:52.360Z,1.90
2022-08-28T06:31:24.741Z,1.98
2022-08-28T06:33:56.157Z,2.08
2022-08-28T06:36:24.987Z,2.30
2022-08-28T06:38:52.008Z,2.47
2022-08-28T06:41:19.650Z,2.63
2022-08-28T06:43:46.764Z,1.98
2022-08-28T06:46:13.828Z,1.75
2022-08-28T06:48:40.896Z,1.73
2022-08-28T06:51:09.811Z,2.10
2022-08-28T06:53:38.159Z,1.77
2022-08-28T06:56:08.585Z,2.00
2022-08-28T06:58:42.752Z,2.25
2022-08-28T07:01:18.886Z,2.08
2022-08-28T07:03:46.381Z,1.88
2022-08-28T07:06:15.186Z,1.85
2022-08-28T07:08:43.821Z,2.00
2022-08-28T07:11:17.900Z,1.85
2022-08-28T07:13:45.614Z,2.83
2022-08-28T07:16:17.564Z,1.73
2022-08-28T07:18:45.691Z,1.85
2022-08-28T07:21:13.648Z,1.50
2022-08-28T07:23:42.421Z,1.55
2022-08-28T07:26:12.720Z,1.30
2022-08-28T07:28:39.816Z,2.40
2022-08-28T07:31:15.130Z,1.42
2022-08-28T07:33:43.649Z,1.73
2022-08-28T07:36:15.745Z,1.45
2022-08-28T07:38:50.247Z,1.17
2022-08-28T07:41:24.908Z,1.92
2022-08-28T07:44:10.987Z,1.17
2022-08-28T07:46:39.620Z,1.43
2022-08-28T07:49:07.631Z,1.08
2022-08-28T07:51:35.242Z,1.40
2022-08-28T07:54:03.913Z,1.20
2022-08-28T07:56:32.020Z,1.88
2022-08-28T07:59:00.857Z,0.90
2022-08-28T08:01:30.634Z,1.42
2022-08-28T08:04:01.511Z,1.58
2022-08-28T08:06:34.259Z,1.23
2022-08-28T08:09:02.173Z,1.33
2022-08-28T08:11:32.552Z,1.52
2022-08-28T08:14:05.454Z,1.75
2022-08-28T08:16:39.011Z,1.45
2022-08-28T08:19:09.624Z,1.30
2022-08-28T08:21:36.825Z,1.48
2022-08-28T08:24:04.064Z,1.30
2022-08-28T08:28:58.892Z,1.30
2022-08-28T08:31:28.479Z,1.08
2022-08-28T08:33:58.165Z,1.15
2022-08-28T08:36:26.711Z,1.80
2022-08-28T08:38:59.833Z,1.10
2022-08-28T08:41:48.255Z,1.85
2022-08-28T08:44:28.075Z,1.15
2022-08-28T08:47:14.824Z,1.40
2022-08-28T08:49:58.240Z,1.08
2022-08-28T08:52:32.152Z,1.90
2022-08-28T08:55:25.244Z,1.52
2022-08-28T08:58:11.348Z,0.82
2022-08-28T09:00:50.179Z,1.23
2022-08-28T09:03:25.635Z,1.35
2022-08-28T09:06:01.967Z,0.90
2022-08-28T09:08:39.246Z,1.43
2022-08-28T09:11:21.987Z,1.35
2022-08-28T09:13:49.282Z,1.15
2022-08-28T09:18:49.192Z,0.93
2022-08-28T09:21:29.012Z,1.20
2022-08-28T09:24:05.783Z,1.10
2022-08-28T09:26:33.519Z,1.30
2022-08-28T09:29:05.484Z,1.55
2022-08-28T09:31:41.082Z,1.33
2022-08-28T09:34:24.061Z,1.77
2022-08-28T09:36:52.716Z,1.33
2022-08-28T09:39:29.756Z,1.02
2022-08-28T09:42:33.649Z,1.00
2022-08-28T09:45:13.689Z,1.10
2022-08-28T09:47:57.816Z,1.52
2022-08-28T09:50:39.342Z,1.45
2022-08-28T09:53:09.378Z,0.90
2022-08-28T09:55:57.091Z,1.00
2022-08-28T09:58:48.491Z,1.30
2022-08-28T10:01:44.714Z,1.27
2022-08-28T10:04:27.351Z,0.90
2022-08-28T10:07:14.284Z,1.23
2022-08-28T10:10:23.526Z,1.13
2022-08-28T10:13:06.214Z,1.05
2022-08-28T10:15:51.381Z,1.30
2022-08-28T10:18:36.856Z,0.95
2022-08-28T10:21:31.941Z,1.05
2022-08-28T10:24:30.488Z,1.02
2022-08-28T10:27:17.645Z,1.05
2022-08-28T10:30:08.892Z,1.25
2022-08-28T10:33:16.690Z,0.95
2022-08-28T10:35:53.137Z,0.80
2022-08-28T10:38:24.145Z,0.98
2022-08-28T10:41:06.116Z,1.10
2022-08-28T10:43:51.899Z,0.90
2022-08-28T10:46:41.817Z,1.23
2022-08-28T10:49:24.256Z,1.10
2022-08-28T10:51:59.167Z,0.90
2022-08-28T10:54:52.886Z,1.05
2022-08-28T10:57:40.282Z,0.88
2022-08-28T11:00:13.929Z,1.00
2022-08-28T11:02:58.395Z,1.00
2022-08-28T11:05:33.001Z,1.08
2022-08-28T11:08:08.084Z,0.90
2022-08-28T11:10:38.687Z,1.45
2022-08-28T11:13:09.657Z,0.80
2022-08-28T11:15:37.596Z,0.95
2022-08-28T11:18:13.992Z,0.93
2022-08-28T11:20:53.847Z,0.95
2022-08-28T11:23:30.083Z,0.90
2022-08-28T11:26:03.467Z,1.50
2022-08-28T11:28:36.524Z,1.00
2022-08-28T11:31:06.544Z,0.80
2022-08-28T11:33:50.499Z,0.85
2022-08-28T11:36:20.441Z,0.93
2022-08-28T11:38:57.014Z,0.90
2022-08-28T11:41:28.630Z,0.75
2022-08-28T11:44:11.112Z,1.17
2022-08-28T11:46:42.432Z,0.80
2022-08-28T11:49:29.661Z,1.40
2022-08-28T11:52:06.663Z,0.93
2022-08-28T11:55:10.669Z,0.88
2022-08-28T12:00:55.610Z,0.60
2022-08-28T12:03:28.599Z,1.10
2022-08-28T12:05:58.532Z,0.98
2022-08-28T12:08:45.611Z,0.93
2022-08-28T12:11:52.778Z,0.80
2022-08-28T12:14:25.837Z,0.75
2022-08-28T12:16:58.767Z,0.85
2022-08-28T12:19:29.460Z,0.57
2022-08-28T12:21:56.799Z,1.13
2022-08-28T12:24:24.529Z,1.08
2022-08-28T12:26:54.712Z,1.25
2022-08-28T12:29:55.017Z,1.17
2022-08-28T12:32:37.794Z,0.63
2022-08-28T12:35:21.119Z,0.80
2022-08-28T12:37:54.262Z,0.73
2022-08-28T12:40:25.515Z,1.20
2022-08-28T12:42:58.622Z,0.98
2022-08-28T12:45:42.434Z,0.70
2022-08-28T12:48:32.404Z,0.70
2022-08-28T12:51:09.133Z,0.55
2022-08-28T12:53:42.829Z,0.90
2022-08-28T12:56:15.270Z,1.13
2022-08-28T12:58:43.803Z,1.13
2022-08-28T13:01:15.960Z,0.80
2022-08-28T13:04:04.445Z,0.70
2022-08-28T13:06:36.099Z,0.90
2022-08-28T13:09:14.981Z,0.80
2022-08-28T13:11:47.778Z,0.70
2022-08-28T13:14:35.280Z,0.88
2022-08-28T13:17:02.861Z,0.45
2022-08-28T13:19:32.669Z,0.70
2022-08-28T13:22:09.298Z,0.93
2022-08-28T13:24:43.599Z,0.65
2022-08-28T13:27:16.355Z,0.82
2022-08-28T13:29:57.458Z,0.50
2022-08-28T13:32:34.243Z,0.50
2022-08-28T13:35:21.814Z,0.70
2022-08-28T13:37:51.144Z,0.70
2022-08-28T13:40:55.939Z,0.50
2022-08-28T13:43:12.099Z,0.82
2022-08-28T13:45:44.186Z,0.85
2022-08-28T13:48:15.839Z,1.02
2022-08-28T13:50:46.565Z,0.80
2022-08-28T13:53:16.764Z,0.82
2022-08-28T13:55:45.133Z,1.00
2022-08-28T13:58:13.808Z,0.65
2022-08-28T14:00:45.300Z,0.60
2022-08-28T14:03:30.871Z,0.70
2022-08-28T14:05:57.843Z,0.73
2022-08-28T14:08:24.987Z,0.70
2022-08-28T14:10:52.198Z,0.50
2022-08-28T14:13:20.221Z,0.65
2022-08-28T14:15:47.506Z,0.80
2022-08-28T14:18:14.578Z,0.60
2022-08-28T14:20:41.657Z,0.70
2022-08-28T14:23:11.494Z,0.68
2022-08-28T14:25:43.836Z,0.70
2022-08-28T14:28:12.605Z,0.70
2022-08-28T14:30:48.752Z,0.60
2022-08-28T14:33:18.771Z,0.60
2022-08-28T14:35:49.103Z,0.50
2022-08-28T14:38:16.637Z,0.52
2022-08-28T14:40:44.191Z,0.70
2022-08-28T14:43:12.864Z,0.98
2022-08-28T14:45:49.355Z,0.73
2022-08-28T14:48:18.343Z,0.88
2022-08-28T14:50:47.986Z,0.90
2022-08-28T14:53:15.862Z,0.68
2022-08-28T14:55:48.475Z,0.95
2022-08-28T14:58:17.307Z,0.82
2022-08-28T15:00:47.616Z,0.95
2022-08-28T15:03:15.181Z,0.60
2022-08-28T15:05:42.476Z,0.80
2022-08-28T15:08:12.312Z,0.80
2022-08-28T15:10:43.668Z,0.40
2022-08-28T15:13:12.731Z,0.68
2022-08-28T15:15:42.141Z,0.60
2022-08-28T15:18:10.591Z,0.30
2022-08-28T15:20:46.271Z,0.55
2022-08-28T15:23:14.567Z,0.77
2022-08-28T15:25:42.025Z,0.57
2022-08-28T15:28:09.965Z,0.50
2022-08-28T15:30:37.508Z,0.63
2022-08-28T15:33:05.550Z,0.95
2022-08-28T15:35:34.372Z,0.60
2022-08-28T15:38:01.645Z,0.82
2022-08-28T15:40:49.148Z,0.50
2022-08-28T15:43:16.308Z,1.05
2022-08-28T15:45:44.104Z,0.80
2022-08-28T15:48:11.575Z,0.65
2022-08-28T15:50:39.101Z,0.60
2022-08-28T15:53:06.776Z,0.47
2022-08-28T15:55:34.084Z,0.75
2022-08-28T15:58:04.256Z,0.50
2022-08-28T16:00:36.001Z,0.55
2022-08-28T16:03:05.680Z,0.55
2022-08-28T16:05:34.692Z,0.55
2022-08-28T16:08:06.531Z,0.75
2022-08-28T16:10:34.194Z,0.50
2022-08-28T16:13:03.188Z,0.73
2022-08-28T16:15:30.441Z,0.50
2022-08-28T16:17:57.454Z,0.68
2022-08-28T16:20:26.953Z,0.70
2022-08-28T16:22:54.107Z,0.75
2022-08-28T16:25:21.055Z,0.80
2022-08-28T16:27:48.015Z,0.75
2022-08-28T16:32:46.546Z,0.50
2022-08-28T16:35:14.948Z,0.77
2022-08-28T16:37:42.777Z,0.70
2022-08-28T16:40:11.231Z,0.98
2022-08-28T16:42:39.606Z,0.95
